Saffell, Arkansas
Current Conditions -  °F | °C
As of 11:56 AM on Friday 19 Dec 2014 (Local Time) from KM19 Reporting Station
Broken Clouds Broken Clouds  
Wind Chill: 36°   Ceiling: 1600
Heat Index: 40°   Visibility: 10mi
Dew Point: 36°   Wind: 6mph
Humidity: 86%   Direction: 10°N
Pressure: 30.31"   Gusts: NA
Location:  35.92°N, 91.29°W
Report Text: KM19 191756Z AUTO 01005KT 10SM BKN016 04/02 A3031 RMK AO2 50006 T00440022 10044 20033 BKN V OVC SLP266
Loading
Personal Weather Stations






























Interactive Weather Map New forecast layout! Learn more

10-Day Weather Forecast

Advertisements
Track Severe Weather on mobile